CST,Max TemperatureF,Mean TemperatureF,Min TemperatureF,Max Dew PointF,MeanDew PointF,Min DewpointF,Max Humidity, Mean Humidity, Min Humidity, Max Sea Level PressureIn, Mean Sea Level PressureIn, Min Sea Level PressureIn, Max VisibilityMiles, Mean VisibilityMiles, Min VisibilityMiles, Max Wind SpeedMPH, Mean Wind SpeedMPH, Max Gust SpeedMPH,PrecipitationIn, CloudCover, Events, WindDirDegrees
2014-2-1,22,13,4,17,10,-2,91,73,54,30.36,30.08,29.87,10,8,2,28,13,35,0.02,5,Snow,299
2014-2-2,33,13,-8,11,3,-11,79,58,36,30.40,30.31,30.22,10,10,10,22,10,27,0.00,0,,212
2014-2-3,32,17,2,12,8,-1,91,65,39,30.27,30.23,30.19,10,10,10,12,4,14,0.00,5,,158
2014-2-4,26,14,2,14,2,-5,84,70,55,30.57,30.37,30.24,10,4,0,28,17,34,0.04,8,Snow,17
2014-2-5,8,2,-5,-3,-7,-13,79,65,50,30.73,30.61,30.46,10,7,2,29,18,35,T,5,Snow,336
2014-2-6,8,-1,-10,-4,-10,-17,79,68,56,30.71,30.56,30.38,10,10,2,17,10,22,T,2,Snow,266
2014-2-7,16,3,-10,6,-1,-16,82,71,59,30.42,30.26,30.07,10,10,8,20,10,25,0.00,4,,199
2014-2-8,21,16,10,15,11,5,84,73,62,30.29,30.10,29.93,10,7,1,16,10,20,0.03,6,Snow,320
2014-2-9,16,7,-2,8,-2,-6,84,75,66,30.53,30.42,30.31,10,10,10,17,9,20,0.00,3,,334
2014-2-10,12,0,-13,2,-5,-17,87,73,58,30.58,30.53,30.50,10,10,9,9,3,10,0.00,5,,190
2014-2-11,22,13,4,14,9,-1,79,73,67,30.47,30.23,29.99,10,10,10,25,14,33,0.00,7,,181
2014-2-12,29,24,19,23,18,13,84,71,57,30.20,30.02,29.76,10,8,1,29,12,35,0.02,5,Snow,298
2014-2-13,50,37,24,28,24,13,75,57,39,29.78,29.73,29.69,10,10,10,23,12,29,T,2,,311
2014-2-14,30,24,18,15,10,8,74,58,42,30.11,29.97,29.72,10,10,10,22,11,26,T,4,,349
2014-2-15,57,39,21,30,23,10,78,52,26,30.10,29.93,29.75,10,10,9,38,18,49,T,4,,280
2014-2-16,39,30,20,27,21,17,92,73,54,30.14,30.01,29.82,10,8,2,25,14,33,T,5,,110
2014-2-17,53,43,32,32,26,17,96,61,26,29.94,29.84,29.76,10,8,1,30,14,38,0.10,3,Rain-Snow,251
2014-2-18,62,47,32,28,22,18,64,43,22,29.96,29.74,29.62,10,10,10,37,13,46,0.00,0,,276
2014-2-19,57,39,20,26,21,18,88,55,22,29.95,29.78,29.58,10,9,2,30,10,36,0.00,0,,184
2014-2-20,43,33,22,31,24,13,89,67,44,29.80,29.65,29.56,10,8,1,38,21,48,0.06,6,Snow,321
2014-2-21,48,33,18,28,18,12,88,63,37,29.91,29.82,29.75,10,10,8,37,8,45,T,1,Rain,276
2014-2-22,39,30,21,22,14,7,84,61,37,30.25,30.06,29.91,10,10,10,17,9,23,0.00,4,,353
2014-2-23,31,24,16,9,7,4,67,50,32,30.42,30.36,30.27,10,10,10,15,7,21,0.00,4,,343
2014-2-24,22,17,12,18,14,7,91,74,57,30.44,30.28,30.17,10,3,0,24,8,27,0.12,8,Fog-Snow,92
2014-2-25,14,7,0,6,-1,-7,83,68,53,30.57,30.49,30.36,10,10,4,26,14,31,T,4,Snow,328
2014-2-26,33,12,-9,12,2,-14,83,61,38,30.55,30.17,29.95,10,10,10,23,12,29,0.00,0,,273
2014-2-27,15,9,2,2,-2,-10,79,64,49,30.23,30.08,29.89,10,10,10,18,11,23,0.00,2,,92
2014-2-28,34,21,8,18,9,1,80,63,46,30.25,29.97,29.79,10,8,2,30,15,35,0.03,6,Snow,5